sensor_id;sensor_type;location;lat;lon;timestamp;temperature;humidity
11700;DHT22;5906;51.660;6.674;2024-03-23T00:54:30;7.20;85.40
11700;DHT22;5906;51.660;6.674;2024-03-23T00:56:56;7.20;85.20
11700;DHT22;5906;51.660;6.674;2024-03-23T00:59:22;7.20;84.10
11700;DHT22;5906;51.660;6.674;2024-03-23T01:01:53;7.10;85.60
11700;DHT22;5906;51.660;6.674;2024-03-23T01:04:19;7.00;87.10
11700;DHT22;5906;51.660;6.674;2024-03-23T01:06:45;7.00;87.90
11700;DHT22;5906;51.660;6.674;2024-03-23T01:09:11;7.00;89.40
11700;DHT22;5906;51.660;6.674;2024-03-23T01:11:38;7.10;89.20
11700;DHT22;5906;51.660;6.674;2024-03-23T01:14:03;7.00;88.70
11700;DHT22;5906;51.660;6.674;2024-03-23T01:16:29;6.90;89.70
11700;DHT22;5906;51.660;6.674;2024-03-23T01:18:55;6.90;90.80
11700;DHT22;5906;51.660;6.674;2024-03-23T01:21:21;6.90;91.10
11700;DHT22;5906;51.660;6.674;2024-03-23T01:23:47;6.90;90.40
11700;DHT22;5906;51.660;6.674;2024-03-23T01:26:13;6.80;91.20
11700;DHT22;5906;51.660;6.674;2024-03-23T01:28:40;6.80;91.90
11700;DHT22;5906;51.660;6.674;2024-03-23T01:31:06;6.80;92.00
11700;DHT22;5906;51.660;6.674;2024-03-23T01:33:33;6.90;92.30
11700;DHT22;5906;51.660;6.674;2024-03-23T01:35:59;7.00;91.30
11700;DHT22;5906;51.660;6.674;2024-03-23T01:38:25;6.90;91.40
11700;DHT22;5906;51.660;6.674;2024-03-23T01:41:00;6.80;91.80
11700;DHT22;5906;51.660;6.674;2024-03-23T01:43:26;6.80;91.80
11700;DHT22;5906;51.660;6.674;2024-03-23T01:45:52;6.80;92.50
11700;DHT22;5906;51.660;6.674;2024-03-23T01:48:20;6.80;93.70
11700;DHT22;5906;51.660;6.674;2024-03-23T01:50:46;6.90;94.20
11700;DHT22;5906;51.660;6.674;2024-03-23T01:53:14;6.90;94.50
11700;DHT22;5906;51.660;6.674;2024-03-23T01:55:43;6.90;94.20
11700;DHT22;5906;51.660;6.674;2024-03-23T01:58:09;6.90;94.40
11700;DHT22;5906;51.660;6.674;2024-03-23T02:00:35;6.90;93.50
11700;DHT22;5906;51.660;6.674;2024-03-23T02:03:01;6.80;93.10
11700;DHT22;5906;51.660;6.674;2024-03-23T02:05:27;6.80;93.90
11700;DHT22;5906;51.660;6.674;2024-03-23T02:07:54;6.90;94.40
11700;DHT22;5906;51.660;6.674;2024-03-23T02:10:20;6.90;94.60
11700;DHT22;5906;51.660;6.674;2024-03-23T02:12:46;6.90;94.80
11700;DHT22;5906;51.660;6.674;2024-03-23T02:15:12;6.90;95.00
11700;DHT22;5906;51.660;6.674;2024-03-23T02:17:38;7.00;95.20
11700;DHT22;5906;51.660;6.674;2024-03-23T02:20:04;7.00;95.20
11700;DHT22;5906;51.660;6.674;2024-03-23T02:22:38;7.00;94.80
11700;DHT22;5906;51.660;6.674;2024-03-23T02:25:05;6.90;94.80
11700;DHT22;5906;51.660;6.674;2024-03-23T02:27:32;6.90;94.10
11700;DHT22;5906;51.660;6.674;2024-03-23T02:29:59;6.90;93.90
11700;DHT22;5906;51.660;6.674;2024-03-23T02:32:25;6.80;92.60
11700;DHT22;5906;51.660;6.674;2024-03-23T02:34:51;6.80;92.60
11700;DHT22;5906;51.660;6.674;2024-03-23T02:37:16;6.80;92.70
11700;DHT22;5906;51.660;6.674;2024-03-23T02:39:42;6.80;92.80
11700;DHT22;5906;51.660;6.674;2024-03-23T02:42:08;6.80;93.20
11700;DHT22;5906;51.660;6.674;2024-03-23T02:44:34;6.80;92.90
11700;DHT22;5906;51.660;6.674;2024-03-23T02:47:00;6.70;92.60
11700;DHT22;5906;51.660;6.674;2024-03-23T02:49:27;6.80;92.90
11700;DHT22;5906;51.660;6.674;2024-03-23T02:51:53;6.80;91.70
11700;DHT22;5906;51.660;6.674;2024-03-23T02:54:19;6.70;92.10
11700;DHT22;5906;51.660;6.674;2024-03-23T02:56:45;6.70;92.80
11700;DHT22;5906;51.660;6.674;2024-03-23T02:59:11;6.70;91.50
11700;DHT22;5906;51.660;6.674;2024-03-23T03:01:37;6.70;92.30
11700;DHT22;5906;51.660;6.674;2024-03-23T03:04:03;6.70;92.80
11700;DHT22;5906;51.660;6.674;2024-03-23T03:06:31;6.80;92.10
11700;DHT22;5906;51.660;6.674;2024-03-23T03:08:57;6.80;91.50
11700;DHT22;5906;51.660;6.674;2024-03-23T03:11:23;6.80;91.50
11700;DHT22;5906;51.660;6.674;2024-03-23T03:13:49;6.80;91.20
11700;DHT22;5906;51.660;6.674;2024-03-23T03:16:15;6.80;90.90
11700;DHT22;5906;51.660;6.674;2024-03-23T03:18:41;6.80;91.30
11700;DHT22;5906;51.660;6.674;2024-03-23T03:21:12;6.80;91.20
11700;DHT22;5906;51.660;6.674;2024-03-23T03:23:38;6.90;90.80
11700;DHT22;5906;51.660;6.674;2024-03-23T03:26:05;6.90;90.50
11700;DHT22;5906;51.660;6.674;2024-03-23T03:28:31;6.90;90.40
11700;DHT22;5906;51.660;6.674;2024-03-23T03:30:59;6.80;90.40
11700;DHT22;5906;51.660;6.674;2024-03-23T03:33:27;6.90;90.90
11700;DHT22;5906;51.660;6.674;2024-03-23T03:35:53;6.90;89.90
11700;DHT22;5906;51.660;6.674;2024-03-23T03:38:19;6.80;89.80
11700;DHT22;5906;51.660;6.674;2024-03-23T03:40:45;6.90;89.40
11700;DHT22;5906;51.660;6.674;2024-03-23T03:43:12;6.80;89.70
11700;DHT22;5906;51.660;6.674;2024-03-23T03:45:38;6.70;90.30
11700;DHT22;5906;51.660;6.674;2024-03-23T03:48:04;6.80;90.10
11700;DHT22;5906;51.660;6.674;2024-03-23T03:50:30;6.80;89.60
11700;DHT22;5906;51.660;6.674;2024-03-23T03:52:56;6.70;90.20
11700;DHT22;5906;51.660;6.674;2024-03-23T03:55:22;6.70;90.70
11700;DHT22;5906;51.660;6.674;2024-03-23T03:57:48;6.80;90.70
11700;DHT22;5906;51.660;6.674;2024-03-23T04:00:14;6.80;89.90
11700;DHT22;5906;51.660;6.674;2024-03-23T04:02:42;6.80;89.80
11700;DHT22;5906;51.660;6.674;2024-03-23T04:05:08;6.70;90.30
11700;DHT22;5906;51.660;6.674;2024-03-23T04:07:34;6.70;90.50
11700;DHT22;5906;51.660;6.674;2024-03-23T04:10:00;6.70;90.80
11700;DHT22;5906;51.660;6.674;2024-03-23T04:12:26;6.70;89.90
11700;DHT22;5906;51.660;6.674;2024-03-23T04:14:52;6.70;90.00
11700;DHT22;5906;51.660;6.674;2024-03-23T04:17:19;6.60;90.50
11700;DHT22;5906;51.660;6.674;2024-03-23T04:19:45;6.70;89.90
11700;DHT22;5906;51.660;6.674;2024-03-23T04:22:11;6.70;89.50
11700;DHT22;5906;51.660;6.674;2024-03-23T04:24:37;6.70;89.70
11700;DHT22;5906;51.660;6.674;2024-03-23T04:27:03;6.70;89.40
11700;DHT22;5906;51.660;6.674;2024-03-23T04:29:29;6.70;89.40
11700;DHT22;5906;51.660;6.674;2024-03-23T04:31:55;6.70;89.50
11700;DHT22;5906;51.660;6.674;2024-03-23T04:34:22;6.70;89.50
11700;DHT22;5906;51.660;6.674;2024-03-23T04:36:48;6.80;89.40
11700;DHT22;5906;51.660;6.674;2024-03-23T04:39:15;6.70;89.80
11700;DHT22;5906;51.660;6.674;2024-03-23T04:41:40;6.70;89.80
11700;DHT22;5906;51.660;6.674;2024-03-23T04:44:06;6.60;90.30
11700;DHT22;5906;51.660;6.674;2024-03-23T04:46:32;6.70;90.10
11700;DHT22;5906;51.660;6.674;2024-03-23T04:48:59;6.60;90.40
11700;DHT22;5906;51.660;6.674;2024-03-23T04:51:25;6.60;90.70
11700;DHT22;5906;51.660;6.674;2024-03-23T04:53:52;6.60;91.00
11700;DHT22;5906;51.660;6.674;2024-03-23T04:56:19;6.60;91.00
11700;DHT22;5906;51.660;6.674;2024-03-23T04:58:45;6.70;90.80
11700;DHT22;5906;51.660;6.674;2024-03-23T05:01:13;6.60;90.50
11700;DHT22;5906;51.660;6.674;2024-03-23T05:03:39;6.60;90.80
11700;DHT22;5906;51.660;6.674;2024-03-23T05:06:05;6.50;90.80
11700;DHT22;5906;51.660;6.674;2024-03-23T05:08:31;6.60;91.30
11700;DHT22;5906;51.660;6.674;2024-03-23T05:10:57;6.60;91.20
11700;DHT22;5906;51.660;6.674;2024-03-23T05:13:23;6.60;91.10
11700;DHT22;5906;51.660;6.674;2024-03-23T05:15:53;6.60;91.30
11700;DHT22;5906;51.660;6.674;2024-03-23T05:18:20;6.60;90.80
11700;DHT22;5906;51.660;6.674;2024-03-23T05:20:46;6.70;91.60
11700;DHT22;5906;51.660;6.674;2024-03-23T05:23:12;6.70;91.30
11700;DHT22;5906;51.660;6.674;2024-03-23T05:25:38;6.70;90.50
11700;DHT22;5906;51.660;6.674;2024-03-23T05:28:04;6.70;90.60
11700;DHT22;5906;51.660;6.674;2024-03-23T05:30:31;6.60;89.90
11700;DHT22;5906;51.660;6.674;2024-03-23T05:32:57;6.60;90.00
11700;DHT22;5906;51.660;6.674;2024-03-23T05:35:23;6.50;90.40
11700;DHT22;5906;51.660;6.674;2024-03-23T05:37:49;6.30;90.50
11700;DHT22;5906;51.660;6.674;2024-03-23T05:40:15;6.20;90.90
11700;DHT22;5906;51.660;6.674;2024-03-23T05:42:41;6.10;91.10
11700;DHT22;5906;51.660;6.674;2024-03-23T05:45:07;6.10;91.50
11700;DHT22;5906;51.660;6.674;2024-03-23T05:47:33;6.00;92.20
11700;DHT22;5906;51.660;6.674;2024-03-23T05:49:59;6.10;92.10
11700;DHT22;5906;51.660;6.674;2024-03-23T05:52:25;6.00;92.20
11700;DHT22;5906;51.660;6.674;2024-03-23T05:54:52;6.00;92.20
11700;DHT22;5906;51.660;6.674;2024-03-23T05:57:18;6.00;91.90
11700;DHT22;5906;51.660;6.674;2024-03-23T05:59:45;5.90;91.90
11700;DHT22;5906;51.660;6.674;2024-03-23T06:02:11;5.80;92.40
11700;DHT22;5906;51.660;6.674;2024-03-23T06:04:37;5.80;92.70
11700;DHT22;5906;51.660;6.674;2024-03-23T06:07:04;5.80;92.80
11700;DHT22;5906;51.660;6.674;2024-03-23T06:09:32;5.70;93.10
11700;DHT22;5906;51.660;6.674;2024-03-23T06:11:58;5.70;93.20
11700;DHT22;5906;51.660;6.674;2024-03-23T06:14:24;5.80;93.10
11700;DHT22;5906;51.660;6.674;2024-03-23T06:16:50;5.80;92.90
11700;DHT22;5906;51.660;6.674;2024-03-23T06:19:16;5.90;92.60
11700;DHT22;5906;51.660;6.674;2024-03-23T06:21:45;5.90;92.50
11700;DHT22;5906;51.660;6.674;2024-03-23T06:24:12;5.90;92.40
11700;DHT22;5906;51.660;6.674;2024-03-23T06:26:39;5.90;92.50
11700;DHT22;5906;51.660;6.674;2024-03-23T06:29:04;5.90;92.80
11700;DHT22;5906;51.660;6.674;2024-03-23T06:31:37;5.90;92.60
11700;DHT22;5906;51.660;6.674;2024-03-23T06:34:03;6.00;92.30
11700;DHT22;5906;51.660;6.674;2024-03-23T06:36:29;6.10;91.90
11700;DHT22;5906;51.660;6.674;2024-03-23T06:38:56;6.10;91.40
11700;DHT22;5906;51.660;6.674;2024-03-23T06:41:22;6.10;91.50
11700;DHT22;5906;51.660;6.674;2024-03-23T06:43:49;6.20;91.10
11700;DHT22;5906;51.660;6.674;2024-03-23T06:46:15;6.20;91.00
11700;DHT22;5906;51.660;6.674;2024-03-23T06:48:41;6.30;91.00
11700;DHT22;5906;51.660;6.674;2024-03-23T06:51:07;6.30;91.30
11700;DHT22;5906;51.660;6.674;2024-03-23T06:53:33;6.30;91.10
11700;DHT22;5906;51.660;6.674;2024-03-23T06:55:58;6.40;91.30
11700;DHT22;5906;51.660;6.674;2024-03-23T06:58:25;6.60;90.70
11700;DHT22;5906;51.660;6.674;2024-03-23T07:00:51;6.60;89.80
11700;DHT22;5906;51.660;6.674;2024-03-23T07:03:17;6.60;89.90
11700;DHT22;5906;51.660;6.674;2024-03-23T07:05:43;6.70;89.50
11700;DHT22;5906;51.660;6.674;2024-03-23T07:08:12;6.80;89.20
11700;DHT22;5906;51.660;6.674;2024-03-23T07:10:41;6.90;89.20
11700;DHT22;5906;51.660;6.674;2024-03-23T07:13:06;7.10;88.60
11700;DHT22;5906;51.660;6.674;2024-03-23T07:15:33;7.30;89.00
11700;DHT22;5906;51.660;6.674;2024-03-23T07:17:59;7.50;87.70
11700;DHT22;5906;51.660;6.674;2024-03-23T07:20:25;7.60;86.20
11700;DHT22;5906;51.660;6.674;2024-03-23T07:22:51;7.70;86.00
11700;DHT22;5906;51.660;6.674;2024-03-23T07:25:17;7.70;85.30
11700;DHT22;5906;51.660;6.674;2024-03-23T07:27:42;7.80;85.10
11700;DHT22;5906;51.660;6.674;2024-03-23T07:30:08;7.80;85.00
11700;DHT22;5906;51.660;6.674;2024-03-23T07:32:35;7.80;83.90
11700;DHT22;5906;51.660;6.674;2024-03-23T07:35:01;7.70;83.80
11700;DHT22;5906;51.660;6.674;2024-03-23T07:37:28;7.80;84.00
11700;DHT22;5906;51.660;6.674;2024-03-23T07:39:54;7.70;82.80
11700;DHT22;5906;51.660;6.674;2024-03-23T07:42:20;7.60;83.60
11700;DHT22;5906;51.660;6.674;2024-03-23T07:44:46;7.70;83.80
11700;DHT22;5906;51.660;6.674;2024-03-23T07:47:12;7.60;83.60
11700;DHT22;5906;51.660;6.674;2024-03-23T07:49:38;7.70;83.70
11700;DHT22;5906;51.660;6.674;2024-03-23T07:52:05;7.80;83.80
11700;DHT22;5906;51.660;6.674;2024-03-23T07:54:31;7.80;83.80
11700;DHT22;5906;51.660;6.674;2024-03-23T07:56:58;7.90;83.30
11700;DHT22;5906;51.660;6.674;2024-03-23T07:59:23;8.00;83.30
11700;DHT22;5906;51.660;6.674;2024-03-23T08:01:51;8.10;82.30
11700;DHT22;5906;51.660;6.674;2024-03-23T08:04:16;8.20;82.80
11700;DHT22;5906;51.660;6.674;2024-03-23T08:06:42;8.20;82.40
11700;DHT22;5906;51.660;6.674;2024-03-23T08:09:10;8.20;82.40
11700;DHT22;5906;51.660;6.674;2024-03-23T08:11:36;8.30;82.70
11700;DHT22;5906;51.660;6.674;2024-03-23T08:14:02;8.60;80.80
11700;DHT22;5906;51.660;6.674;2024-03-23T08:16:28;8.80;81.40
11700;DHT22;5906;51.660;6.674;2024-03-23T08:18:54;8.90;79.20
11700;DHT22;5906;51.660;6.674;2024-03-23T08:21:23;8.90;78.50
11700;DHT22;5906;51.660;6.674;2024-03-23T08:23:50;8.80;80.20
11700;DHT22;5906;51.660;6.674;2024-03-23T08:26:17;8.90;79.60
11700;DHT22;5906;51.660;6.674;2024-03-23T08:28:46;9.00;77.90
11700;DHT22;5906;51.660;6.674;2024-03-23T08:31:13;9.00;78.10
11700;DHT22;5906;51.660;6.674;2024-03-23T08:33:40;9.10;77.50
11700;DHT22;5906;51.660;6.674;2024-03-23T08:36:09;9.10;76.50
11700;DHT22;5906;51.660;6.674;2024-03-23T08:38:38;9.10;77.40
11700;DHT22;5906;51.660;6.674;2024-03-23T08:41:06;9.10;76.10
11700;DHT22;5906;51.660;6.674;2024-03-23T08:43:35;9.00;74.30
11700;DHT22;5906;51.660;6.674;2024-03-23T08:46:05;8.90;74.80
11700;DHT22;5906;51.660;6.674;2024-03-23T08:48:32;8.90;75.60
11700;DHT22;5906;51.660;6.674;2024-03-23T08:51:03;8.80;75.40
11700;DHT22;5906;51.660;6.674;2024-03-23T08:53:29;8.80;76.20
11700;DHT22;5906;51.660;6.674;2024-03-23T08:55:57;8.90;74.50
11700;DHT22;5906;51.660;6.674;2024-03-23T08:58:24;8.90;74.40
11700;DHT22;5906;51.660;6.674;2024-03-23T09:00:51;9.20;73.20
11700;DHT22;5906;51.660;6.674;2024-03-23T09:03:17;9.20;71.90
11700;DHT22;5906;51.660;6.674;2024-03-23T09:05:43;9.20;71.30
11700;DHT22;5906;51.660;6.674;2024-03-23T09:08:09;9.30;71.80
11700;DHT22;5906;51.660;6.674;2024-03-23T09:10:40;9.30;70.50
11700;DHT22;5906;51.660;6.674;2024-03-23T09:13:06;9.30;70.50
11700;DHT22;5906;51.660;6.674;2024-03-23T09:15:37;9.20;69.70
11700;DHT22;5906;51.660;6.674;2024-03-23T09:18:04;9.30;70.60
11700;DHT22;5906;51.660;6.674;2024-03-23T09:20:33;9.40;68.40
11700;DHT22;5906;51.660;6.674;2024-03-23T09:22:59;9.50;69.30
11700;DHT22;5906;51.660;6.674;2024-03-23T09:25:25;9.80;70.10
11700;DHT22;5906;51.660;6.674;2024-03-23T09:27:51;10.10;69.80
11700;DHT22;5906;51.660;6.674;2024-03-23T09:30:17;10.20;68.00
11700;DHT22;5906;51.660;6.674;2024-03-23T09:32:46;10.30;65.90
11700;DHT22;5906;51.660;6.674;2024-03-23T09:35:12;10.10;66.00
11700;DHT22;5906;51.660;6.674;2024-03-23T09:37:41;9.90;67.10
11700;DHT22;5906;51.660;6.674;2024-03-23T09:40:11;9.90;67.70
11700;DHT22;5906;51.660;6.674;2024-03-23T09:42:37;9.90;65.10
11700;DHT22;5906;51.660;6.674;2024-03-23T09:45:13;9.90;64.30
11700;DHT22;5906;51.660;6.674;2024-03-23T09:47:42;10.00;67.00
11700;DHT22;5906;51.660;6.674;2024-03-23T09:50:10;10.30;65.30
11700;DHT22;5906;51.660;6.674;2024-03-23T09:52:36;10.50;64.10
11700;DHT22;5906;51.660;6.674;2024-03-23T09:55:04;10.60;63.50
11700;DHT22;5906;51.660;6.674;2024-03-23T09:57:29;10.70;63.20
11700;DHT22;5906;51.660;6.674;2024-03-23T09:59:55;10.90;63.80
11700;DHT22;5906;51.660;6.674;2024-03-23T10:02:24;10.90;62.30
11700;DHT22;5906;51.660;6.674;2024-03-23T10:08:39;10.90;61.50
11700;DHT22;5906;51.660;6.674;2024-03-23T10:11:16;11.10;61.20
11700;DHT22;5906;51.660;6.674;2024-03-23T10:13:43;11.10;60.70
11700;DHT22;5906;51.660;6.674;2024-03-23T10:16:10;11.20;62.10
11700;DHT22;5906;51.660;6.674;2024-03-23T10:18:39;11.30;61.60
11700;DHT22;5906;51.660;6.674;2024-03-23T10:23:35;10.90;57.70
11700;DHT22;5906;51.660;6.674;2024-03-23T10:26:21;10.90;57.60
11700;DHT22;5906;51.660;6.674;2024-03-23T10:29:02;10.80;57.40
11700;DHT22;5906;51.660;6.674;2024-03-23T10:31:36;10.60;59.30
11700;DHT22;5906;51.660;6.674;2024-03-23T10:34:03;10.50;59.50
11700;DHT22;5906;51.660;6.674;2024-03-23T10:36:29;10.60;60.40
11700;DHT22;5906;51.660;6.674;2024-03-23T10:38:56;10.40;59.60
11700;DHT22;5906;51.660;6.674;2024-03-23T10:43:52;9.90;60.70
11700;DHT22;5906;51.660;6.674;2024-03-23T10:46:18;9.60;60.20
11700;DHT22;5906;51.660;6.674;2024-03-23T10:48:44;9.00;62.10
11700;DHT22;5906;51.660;6.674;2024-03-23T10:51:11;8.70;64.00
11700;DHT22;5906;51.660;6.674;2024-03-23T10:53:38;8.50;64.30
11700;DHT22;5906;51.660;6.674;2024-03-23T10:56:04;8.60;65.50
11700;DHT22;5906;51.660;6.674;2024-03-23T10:58:49;9.00;65.50
11700;DHT22;5906;51.660;6.674;2024-03-23T11:01:15;9.60;62.40
11700;DHT22;5906;51.660;6.674;2024-03-23T11:03:46;10.00;63.30
11700;DHT22;5906;51.660;6.674;2024-03-23T11:06:36;10.60;62.30
11700;DHT22;5906;51.660;6.674;2024-03-23T11:09:02;10.90;59.90
11700;DHT22;5906;51.660;6.674;2024-03-23T11:11:28;11.00;59.70
11700;DHT22;5906;51.660;6.674;2024-03-23T11:13:58;11.10;60.50
11700;DHT22;5906;51.660;6.674;2024-03-23T11:16:29;11.40;60.30
11700;DHT22;5906;51.660;6.674;2024-03-23T11:19:33;11.40;59.30
11700;DHT22;5906;51.660;6.674;2024-03-23T11:21:59;11.60;60.00
11700;DHT22;5906;51.660;6.674;2024-03-23T11:24:25;11.30;59.40
11700;DHT22;5906;51.660;6.674;2024-03-23T11:26:52;11.10;59.40
11700;DHT22;5906;51.660;6.674;2024-03-23T11:29:18;11.00;59.80
11700;DHT22;5906;51.660;6.674;2024-03-23T11:31:48;10.80;59.70
11700;DHT22;5906;51.660;6.674;2024-03-23T11:34:15;10.80;60.70
11700;DHT22;5906;51.660;6.674;2024-03-23T11:36:42;10.90;61.10
11700;DHT22;5906;51.660;6.674;2024-03-23T11:39:19;11.00;60.40
11700;DHT22;5906;51.660;6.674;2024-03-23T11:41:52;11.20;59.90
11700;DHT22;5906;51.660;6.674;2024-03-23T11:44:23;11.50;59.50
11700;DHT22;5906;51.660;6.674;2024-03-23T11:46:49;11.50;57.60
11700;DHT22;5906;51.660;6.674;2024-03-23T11:49:26;11.30;58.30
11700;DHT22;5906;51.660;6.674;2024-03-23T11:51:54;10.90;58.00
11700;DHT22;5906;51.660;6.674;2024-03-23T11:54:21;10.70;59.70
11700;DHT22;5906;51.660;6.674;2024-03-23T11:56:58;10.40;59.50
11700;DHT22;5906;51.660;6.674;2024-03-23T11:59:37;10.00;61.40
11700;DHT22;5906;51.660;6.674;2024-03-23T12:02:11;9.80;62.90
11700;DHT22;5906;51.660;6.674;2024-03-23T12:04:40;9.70;65.40
11700;DHT22;5906;51.660;6.674;2024-03-23T12:07:20;9.70;68.80
11700;DHT22;5906;51.660;6.674;2024-03-23T12:10:02;10.20;68.70
11700;DHT22;5906;51.660;6.674;2024-03-23T12:12:29;10.80;66.00
11700;DHT22;5906;51.660;6.674;2024-03-23T12:15:06;11.30;66.50
11700;DHT22;5906;51.660;6.674;2024-03-23T12:17:32;11.90;64.20
11700;DHT22;5906;51.660;6.674;2024-03-23T12:20:01;12.30;61.00
11700;DHT22;5906;51.660;6.674;2024-03-23T12:22:28;12.40;55.20
11700;DHT22;5906;51.660;6.674;2024-03-23T12:24:55;12.30;53.70
11700;DHT22;5906;51.660;6.674;2024-03-23T12:27:22;12.10;53.50
11700;DHT22;5906;51.660;6.674;2024-03-23T12:29:48;11.90;52.30
11700;DHT22;5906;51.660;6.674;2024-03-23T12:32:14;11.90;53.40
11700;DHT22;5906;51.660;6.674;2024-03-23T12:34:40;11.80;52.70
11700;DHT22;5906;51.660;6.674;2024-03-23T12:37:08;11.70;53.20
11700;DHT22;5906;51.660;6.674;2024-03-23T12:39:34;11.80;52.70
11700;DHT22;5906;51.660;6.674;2024-03-23T12:42:02;11.70;50.90
11700;DHT22;5906;51.660;6.674;2024-03-23T12:44:31;11.60;50.70
11700;DHT22;5906;51.660;6.674;2024-03-23T12:46:57;11.50;48.70
11700;DHT22;5906;51.660;6.674;2024-03-23T12:49:23;11.30;50.00
11700;DHT22;5906;51.660;6.674;2024-03-23T12:51:56;11.40;50.30
11700;DHT22;5906;51.660;6.674;2024-03-23T12:54:22;11.40;52.00
11700;DHT22;5906;51.660;6.674;2024-03-23T12:56:49;11.40;53.20
11700;DHT22;5906;51.660;6.674;2024-03-23T12:59:15;11.30;53.00
11700;DHT22;5906;51.660;6.674;2024-03-23T13:01:42;11.00;53.90
11700;DHT22;5906;51.660;6.674;2024-03-23T13:04:09;10.60;55.30
11700;DHT22;5906;51.660;6.674;2024-03-23T13:06:35;10.20;56.50
11700;DHT22;5906;51.660;6.674;2024-03-23T13:09:02;10.00;57.70
11700;DHT22;5906;51.660;6.674;2024-03-23T13:14:10;9.80;59.70
11700;DHT22;5906;51.660;6.674;2024-03-23T13:16:36;10.00;59.50
11700;DHT22;5906;51.660;6.674;2024-03-23T13:19:02;10.20;59.70
11700;DHT22;5906;51.660;6.674;2024-03-23T13:21:29;10.50;59.50
11700;DHT22;5906;51.660;6.674;2024-03-23T13:23:55;10.70;58.60
11700;DHT22;5906;51.660;6.674;2024-03-23T13:26:21;10.90;58.90
11700;DHT22;5906;51.660;6.674;2024-03-23T13:28:46;11.20;58.00
11700;DHT22;5906;51.660;6.674;2024-03-23T13:31:12;11.00;57.90
11700;DHT22;5906;51.660;6.674;2024-03-23T13:33:38;10.90;58.10
11700;DHT22;5906;51.660;6.674;2024-03-23T13:36:05;10.60;58.80
11700;DHT22;5906;51.660;6.674;2024-03-23T13:38:32;10.70;58.60
11700;DHT22;5906;51.660;6.674;2024-03-23T13:40:59;11.00;56.50
11700;DHT22;5906;51.660;6.674;2024-03-23T13:43:26;11.20;56.00
11700;DHT22;5906;51.660;6.674;2024-03-23T13:45:54;11.00;57.40
11700;DHT22;5906;51.660;6.674;2024-03-23T13:48:21;10.80;58.50
11700;DHT22;5906;51.660;6.674;2024-03-23T13:51:09;10.90;58.60
11700;DHT22;5906;51.660;6.674;2024-03-23T13:53:34;10.80;59.50
11700;DHT22;5906;51.660;6.674;2024-03-23T13:56:00;10.60;60.30
11700;DHT22;5906;51.660;6.674;2024-03-23T13:58:26;10.50;60.50
11700;DHT22;5906;51.660;6.674;2024-03-23T14:00:52;10.70;61.20
11700;DHT22;5906;51.660;6.674;2024-03-23T14:03:18;10.60;58.90
11700;DHT22;5906;51.660;6.674;2024-03-23T14:05:45;10.60;59.10
11700;DHT22;5906;51.660;6.674;2024-03-23T14:08:12;10.60;58.60
11700;DHT22;5906;51.660;6.674;2024-03-23T14:10:42;10.50;55.00
11700;DHT22;5906;51.660;6.674;2024-03-23T14:13:08;10.20;54.40
11700;DHT22;5906;51.660;6.674;2024-03-23T14:15:34;10.10;54.60
11700;DHT22;5906;51.660;6.674;2024-03-23T14:18:02;10.40;54.60
11700;DHT22;5906;51.660;6.674;2024-03-23T14:20:29;10.50;54.40
11700;DHT22;5906;51.660;6.674;2024-03-23T14:22:55;10.60;54.80
11700;DHT22;5906;51.660;6.674;2024-03-23T14:25:21;10.60;55.00
11700;DHT22;5906;51.660;6.674;2024-03-23T14:27:53;10.70;56.30
11700;DHT22;5906;51.660;6.674;2024-03-23T14:30:19;10.80;55.50
11700;DHT22;5906;51.660;6.674;2024-03-23T14:32:44;10.80;55.20
11700;DHT22;5906;51.660;6.674;2024-03-23T14:35:10;10.80;54.90
11700;DHT22;5906;51.660;6.674;2024-03-23T14:37:37;10.80;55.20
11700;DHT22;5906;51.660;6.674;2024-03-23T14:40:04;10.70;54.20
11700;DHT22;5906;51.660;6.674;2024-03-23T14:42:30;10.50;51.90
11700;DHT22;5906;51.660;6.674;2024-03-23T14:44:58;10.40;53.40
11700;DHT22;5906;51.660;6.674;2024-03-23T14:47:24;10.30;51.40
11700;DHT22;5906;51.660;6.674;2024-03-23T14:49:49;10.30;52.20
11700;DHT22;5906;51.660;6.674;2024-03-23T14:52:18;10.30;52.80
11700;DHT22;5906;51.660;6.674;2024-03-23T14:54:44;10.30;52.30
11700;DHT22;5906;51.660;6.674;2024-03-23T14:57:10;10.30;53.60
11700;DHT22;5906;51.660;6.674;2024-03-23T14:59:37;10.20;53.80
11700;DHT22;5906;51.660;6.674;2024-03-23T15:02:09;10.10;53.70
11700;DHT22;5906;51.660;6.674;2024-03-23T15:04:35;10.10;54.70
11700;DHT22;5906;51.660;6.674;2024-03-23T15:07:01;10.10;54.20
11700;DHT22;5906;51.660;6.674;2024-03-23T15:09:29;10.10;54.10
11700;DHT22;5906;51.660;6.674;2024-03-23T15:11:55;10.00;53.90
11700;DHT22;5906;51.660;6.674;2024-03-23T15:14:21;10.10;54.20
11700;DHT22;5906;51.660;6.674;2024-03-23T15:17:14;10.10;54.00
11700;DHT22;5906;51.660;6.674;2024-03-23T15:19:41;10.00;54.70
11700;DHT22;5906;51.660;6.674;2024-03-23T15:22:08;10.00;54.00
11700;DHT22;5906;51.660;6.674;2024-03-23T15:24:35;10.00;53.10
11700;DHT22;5906;51.660;6.674;2024-03-23T15:27:05;9.90;54.10
11700;DHT22;5906;51.660;6.674;2024-03-23T15:29:35;9.90;54.00
11700;DHT22;5906;51.660;6.674;2024-03-23T15:32:02;9.90;53.80
11700;DHT22;5906;51.660;6.674;2024-03-23T15:34:29;9.70;54.20
11700;DHT22;5906;51.660;6.674;2024-03-23T15:36:55;9.60;54.40
11700;DHT22;5906;51.660;6.674;2024-03-23T15:39:21;9.60;55.20
11700;DHT22;5906;51.660;6.674;2024-03-23T15:41:49;9.60;55.10
11700;DHT22;5906;51.660;6.674;2024-03-23T15:44:15;9.50;55.50
11700;DHT22;5906;51.660;6.674;2024-03-23T15:49:17;9.50;55.70
11700;DHT22;5906;51.660;6.674;2024-03-23T15:51:46;9.60;55.70
11700;DHT22;5906;51.660;6.674;2024-03-23T15:54:12;9.70;55.50
11700;DHT22;5906;51.660;6.674;2024-03-23T15:56:38;9.70;56.00
11700;DHT22;5906;51.660;6.674;2024-03-23T15:59:05;9.50;56.10
11700;DHT22;5906;51.660;6.674;2024-03-23T16:01:44;9.20;57.10
11700;DHT22;5906;51.660;6.674;2024-03-23T16:04:11;9.00;57.70
11700;DHT22;5906;51.660;6.674;2024-03-23T16:06:41;8.90;58.80
11700;DHT22;5906;51.660;6.674;2024-03-23T16:09:21;8.80;59.30
11700;DHT22;5906;51.660;6.674;2024-03-23T16:12:20;8.80;60.20
11700;DHT22;5906;51.660;6.674;2024-03-23T16:14:46;8.90;60.70
11700;DHT22;5906;51.660;6.674;2024-03-23T16:17:12;8.80;60.40
11700;DHT22;5906;51.660;6.674;2024-03-23T16:19:38;8.70;59.50
11700;DHT22;5906;51.660;6.674;2024-03-23T16:22:03;8.70;59.50
11700;DHT22;5906;51.660;6.674;2024-03-23T16:24:29;8.70;60.60
11700;DHT22;5906;51.660;6.674;2024-03-23T16:26:55;8.60;60.90
11700;DHT22;5906;51.660;6.674;2024-03-23T16:29:21;8.40;61.70
11700;DHT22;5906;51.660;6.674;2024-03-23T16:31:47;8.20;63.20
11700;DHT22;5906;51.660;6.674;2024-03-23T16:34:13;8.10;64.50
11700;DHT22;5906;51.660;6.674;2024-03-23T16:36:40;8.00;65.90
11700;DHT22;5906;51.660;6.674;2024-03-23T16:39:05;7.90;66.60
11700;DHT22;5906;51.660;6.674;2024-03-23T16:41:32;7.90;66.90
11700;DHT22;5906;51.660;6.674;2024-03-23T16:44:00;8.00;67.00
11700;DHT22;5906;51.660;6.674;2024-03-23T16:46:26;8.00;66.60
11700;DHT22;5906;51.660;6.674;2024-03-23T16:48:52;7.90;67.60
11700;DHT22;5906;51.660;6.674;2024-03-23T16:51:18;8.00;68.40
11700;DHT22;5906;51.660;6.674;2024-03-23T16:53:44;7.90;67.80
11700;DHT22;5906;51.660;6.674;2024-03-23T16:56:11;7.80;68.20
11700;DHT22;5906;51.660;6.674;2024-03-23T16:58:40;7.70;67.70
11700;DHT22;5906;51.660;6.674;2024-03-23T17:01:07;7.70;68.00
11700;DHT22;5906;51.660;6.674;2024-03-23T17:03:36;7.50;67.90
11700;DHT22;5906;51.660;6.674;2024-03-23T17:06:06;7.40;67.50